Time;durP1;ratioP1;P1;durP2;ratioP2;P2;SDS_P1;SDS_P2;PMS_P1;PMS_P2;Temp;Humidity;BMP_temperature;BMP_pressure;BME280_temperature;BME280_humidity;BME280_pressure;Samples;Min_cycle;Max_cycle;Signal;HPM_P1;HPM_P2
2022/07/15 00:02:24;;;;;;;4.03;2.75;;;20.50;65.00;;;;;;5015709;28;20104;-14
2022/07/15 00:04:51;;;;;;;3.05;2.40;;;20.40;65.30;;;;;;5015741;28;20041;-15
2022/07/15 00:07:17;;;;;;;5.05;2.70;;;20.40;65.50;;;;;;5015745;28;20032;-13
2022/07/15 00:12:27;;;;;;;3.55;2.58;;;20.40;65.60;;;;;;5015418;28;20092;-14
2022/07/15 00:14:53;;;;;;;3.53;2.50;;;20.40;65.50;;;;;;5015148;28;20064;-13
2022/07/15 00:17:19;;;;;;;2.70;2.45;;;20.30;65.60;;;;;;5015438;28;20061;-13
2022/07/15 00:19:45;;;;;;;4.28;2.88;;;20.30;65.70;;;;;;5015149;28;20044;-14
2022/07/15 00:22:11;;;;;;;5.20;2.97;;;20.30;66.10;;;;;;5015407;28;20108;-13
2022/07/15 00:24:38;;;;;;;4.80;3.08;;;20.20;66.50;;;;;;5015075;28;20125;-13
2022/07/15 00:27:04;;;;;;;4.57;3.10;;;20.20;66.90;;;;;;5015109;28;20060;-14
2022/07/15 00:29:31;;;;;;;4.28;2.65;;;20.20;66.60;;;;;;5013391;28;20057;-14
2022/07/15 00:31:58;;;;;;;6.75;3.28;;;20.10;66.80;;;;;;5014935;28;20034;-14
2022/07/15 00:34:24;;;;;;;4.97;3.50;;;20.20;67.30;;;;;;5014679;28;20100;-14
2022/07/15 00:36:50;;;;;;;5.95;4.00;;;20.10;67.80;;;;;;5015290;28;20482;-13
2022/07/15 00:39:16;;;;;;;6.45;3.45;;;20.10;67.80;;;;;;5014704;28;20041;-13
2022/07/15 00:41:43;;;;;;;4.93;3.15;;;20.10;67.50;;;;;;5015263;28;20021;-13
2022/07/15 00:44:11;;;;;;;6.72;3.70;;;20.00;67.70;;;;;;5014694;28;20034;-14
2022/07/15 00:46:37;;;;;;;6.90;3.28;;;20.00;67.90;;;;;;5014648;28;20030;-14
2022/07/15 00:49:06;;;;;;;4.80;3.03;;;20.00;67.70;;;;;;5014724;28;20018;-13
2022/07/15 00:51:54;;;;;;;6.00;3.50;;;20.00;67.70;;;;;;5014791;28;20052;-14
2022/07/15 00:54:25;;;;;;;5.32;3.53;;;19.90;68.00;;;;;;5014299;28;20038;-14
2022/07/15 00:56:56;;;;;;;5.38;3.45;;;19.90;68.00;;;;;;5014788;28;20041;-14
2022/07/15 00:59:24;;;;;;;4.60;3.35;;;19.90;68.20;;;;;;5014497;28;20113;-14
2022/07/15 01:01:53;;;;;;;5.07;3.47;;;19.90;68.20;;;;;;5014040;28;20075;-14
2022/07/15 01:04:22;;;;;;;4.93;3.38;;;19.90;68.20;;;;;;5012463;28;20037;-14
2022/07/15 01:06:48;;;;;;;6.93;4.63;;;19.90;68.20;;;;;;5014286;28;20543;-14
2022/07/15 01:09:14;;;;;;;10.30;5.30;;;19.80;68.30;;;;;;5014251;28;20112;-13
2022/07/15 01:11:41;;;;;;;7.60;4.57;;;19.80;68.70;;;;;;5014408;28;20033;-13
2022/07/15 01:14:07;;;;;;;5.88;4.32;;;19.70;69.10;;;;;;5014482;28;20037;-13
2022/07/15 01:16:33;;;;;;;7.75;4.60;;;19.60;69.30;;;;;;5013907;28;20041;-14
2022/07/15 01:18:59;;;;;;;7.88;3.88;;;19.50;69.60;;;;;;5014515;28;20038;-13
2022/07/15 01:21:24;;;;;;;7.18;4.50;;;19.50;69.40;;;;;;5014047;28;20041;-13
2022/07/15 01:23:50;;;;;;;5.97;4.22;;;19.40;69.60;;;;;;5014153;28;20034;-14
2022/07/15 01:26:17;;;;;;;7.20;3.72;;;19.40;69.90;;;;;;5013836;28;20026;-13
2022/07/15 01:28:44;;;;;;;6.07;3.80;;;19.40;69.40;;;;;;5013900;28;20362;-13
2022/07/15 01:31:10;;;;;;;5.35;3.38;;;19.40;69.50;;;;;;5013448;28;20046;-13
2022/07/15 01:33:38;;;;;;;7.03;3.75;;;19.30;69.60;;;;;;5013830;28;20113;-12
2022/07/15 01:36:05;;;;;;;5.57;3.90;;;19.30;69.60;;;;;;5014140;28;20485;-14
2022/07/15 01:38:31;;;;;;;4.57;3.60;;;19.30;70.40;;;;;;5013951;28;20504;-14
2022/07/15 01:40:57;;;;;;;7.82;4.53;;;19.20;70.30;;;;;;5013955;28;20020;-14
2022/07/15 01:43:24;;;;;;;7.93;4.25;;;19.20;70.80;;;;;;5013979;28;20108;-12
2022/07/15 01:45:49;;;;;;;8.25;4.18;;;19.20;70.80;;;;;;5013791;28;20072;-14
2022/07/15 01:51:01;;;;;;;5.60;4.13;;;19.10;70.30;;;;;;5013908;28;20102;-14
2022/07/15 01:53:28;;;;;;;6.03;3.85;;;19.10;70.30;;;;;;5012302;28;20030;-14
2022/07/15 01:55:55;;;;;;;5.72;3.70;;;19.10;70.50;;;;;;5013528;28;20397;-13
2022/07/15 01:58:21;;;;;;;4.35;3.60;;;19.10;70.40;;;;;;5013642;28;20034;-14
2022/07/15 02:00:49;;;;;;;6.60;4.10;;;19.10;70.50;;;;;;5013450;28;20014;-15
2022/07/15 02:03:15;;;;;;;5.22;3.90;;;19.00;70.60;;;;;;5013814;28;20152;-14
2022/07/15 02:05:41;;;;;;;6.28;4.22;;;19.00;70.80;;;;;;5013443;28;20029;-14
2022/07/15 02:08:08;;;;;;;8.23;5.07;;;18.90;71.10;;;;;;5013582;28;20504;-14
2022/07/15 02:10:40;;;;;;;6.78;4.85;;;19.00;71.20;;;;;;5013156;28;20033;-14
2022/07/15 02:13:12;;;;;;;7.47;4.38;;;18.90;71.30;;;;;;5013632;28;20037;-13
2022/07/15 02:15:39;;;;;;;7.55;4.25;;;18.90;71.50;;;;;;5013088;28;20033;-13
2022/07/15 02:18:07;;;;;;;6.13;4.18;;;18.90;71.70;;;;;;5013287;28;20029;-13
2022/07/15 02:20:33;;;;;;;8.80;5.05;;;18.80;71.70;;;;;;5013307;28;20137;-14
2022/07/15 02:23:01;;;;;;;5.95;4.45;;;18.80;72.10;;;;;;5013292;28;20092;-13
2022/07/15 02:25:31;;;;;;;6.82;4.45;;;18.80;72.00;;;;;;5013211;28;20022;-14
2022/07/15 02:28:00;;;;;;;8.73;5.65;;;18.70;71.90;;;;;;5013205;28;20030;-15
2022/07/15 02:30:29;;;;;;;7.10;4.95;;;18.70;71.90;;;;;;5012742;28;20049;-15
2022/07/15 02:32:55;;;;;;;5.30;4.03;;;18.70;72.10;;;;;;5013163;28;20033;-14
2022/07/15 02:35:22;;;;;;;6.43;4.38;;;18.70;72.20;;;;;;5013139;28;20034;-14
2022/07/15 02:37:48;;;;;;;5.05;4.40;;;18.70;72.30;;;;;;5013058;28;20141;-13
2022/07/15 02:40:15;;;;;;;6.85;4.95;;;18.60;72.40;;;;;;5012882;28;20083;-14
2022/07/15 02:42:48;;;;;;;7.95;5.45;;;18.60;72.50;;;;;;5013294;28;20457;-15
2022/07/15 02:45:14;;;;;;;8.00;5.57;;;18.60;72.50;;;;;;5013451;28;20026;-14
2022/07/15 02:47:40;;;;;;;6.10;4.35;;;18.60;72.80;;;;;;5013025;28;20077;-14
2022/07/15 02:50:06;;;;;;;7.18;4.32;;;18.60;72.30;;;;;;5012906;28;20029;-14
2022/07/15 02:52:32;;;;;;;8.05;5.00;;;18.50;72.30;;;;;;5012866;28;20381;-14
2022/07/15 02:54:58;;;;;;;5.43;3.97;;;18.50;72.40;;;;;;5013240;28;20036;-15
2022/07/15 02:57:24;;;;;;;6.15;4.70;;;18.50;72.50;;;;;;5012962;28;20168;-14
2022/07/15 02:59:50;;;;;;;8.32;5.00;;;18.60;72.50;;;;;;5012816;28;20113;-15
2022/07/15 03:02:16;;;;;;;8.68;5.00;;;18.50;72.70;;;;;;5013038;28;20169;-15
2022/07/15 03:04:43;;;;;;;6.47;4.72;;;18.50;72.80;;;;;;5011694;28;20061;-15
2022/07/15 03:07:10;;;;;;;10.57;5.70;;;18.40;73.00;;;;;;5012864;28;20116;-15
2022/07/15 03:09:37;;;;;;;8.10;5.07;;;18.50;72.90;;;;;;5012760;28;20030;-13
2022/07/15 03:12:03;;;;;;;7.93;5.00;;;18.40;73.00;;;;;;5013009;28;20104;-13
2022/07/15 03:14:29;;;;;;;7.88;4.70;;;18.40;73.10;;;;;;5012982;28;20033;-13
2022/07/15 03:16:56;;;;;;;8.60;5.22;;;18.40;73.20;;;;;;5012698;28;20433;-15
2022/07/15 03:19:21;;;;;;;8.38;5.28;;;18.40;73.30;;;;;;5012747;28;20521;-15
2022/07/15 03:21:48;;;;;;;7.25;4.40;;;18.40;73.60;;;;;;5012970;28;20018;-14
2022/07/15 03:24:15;;;;;;;5.55;4.18;;;18.40;73.40;;;;;;5012472;28;20445;-15
2022/07/15 03:26:42;;;;;;;7.40;5.07;;;18.30;73.50;;;;;;5014483;28;20477;-14
2022/07/15 03:29:09;;;;;;;7.63;5.30;;;18.30;73.30;;;;;;5016355;28;20489;-13
2022/07/15 03:31:36;;;;;;;8.18;5.45;;;18.30;73.60;;;;;;5014741;28;20382;-14
2022/07/15 03:34:02;;;;;;;8.50;5.32;;;18.30;73.60;;;;;;5016089;28;20080;-13
2022/07/15 03:36:28;;;;;;;10.65;5.90;;;18.30;73.70;;;;;;5016069;28;20018;-13
2022/07/15 03:38:54;;;;;;;9.65;6.22;;;18.30;73.80;;;;;;5016272;28;20030;-15
2022/07/15 03:41:21;;;;;;;10.38;6.80;;;18.30;74.00;;;;;;5016352;28;20351;-14
2022/07/15 03:43:47;;;;;;;11.18;6.28;;;18.30;73.90;;;;;;5015869;28;20030;-14
2022/07/15 03:46:15;;;;;;;8.98;6.07;;;18.30;74.00;;;;;;5015880;28;20072;-15
2022/07/15 03:48:41;;;;;;;8.35;5.68;;;18.30;74.00;;;;;;5016055;28;20060;-14
2022/07/15 03:51:07;;;;;;;10.30;7.22;;;18.30;74.10;;;;;;5014778;28;20055;-14
2022/07/15 03:53:34;;;;;;;11.20;7.95;;;18.40;74.50;;;;;;5016018;28;20501;-13
2022/07/15 03:55:59;;;;;;;9.98;6.60;;;18.40;74.40;;;;;;5015642;28;20034;-14
2022/07/15 03:58:25;;;;;;;10.38;7.53;;;18.40;74.00;;;;;;5015443;28;20029;-15
2022/07/15 04:00:51;;;;;;;8.07;5.78;;;18.40;75.00;;;;;;5015467;28;20022;-15
2022/07/15 04:03:17;;;;;;;9.57;6.18;;;18.40;74.30;;;;;;5015720;28;20104;-14
2022/07/15 04:05:44;;;;;;;10.60;6.28;;;18.40;74.00;;;;;;5014245;28;20030;-14
2022/07/15 04:08:10;;;;;;;10.10;6.43;;;18.40;73.90;;;;;;5015592;28;20030;-13
2022/07/15 04:10:36;;;;;;;10.38;6.82;;;18.50;73.90;;;;;;5015362;28;20037;-14
2022/07/15 04:13:08;;;;;;;10.50;6.70;;;18.60;74.20;;;;;;5015567;28;20433;-16
2022/07/15 04:15:34;;;;;;;9.20;6.10;;;18.60;74.00;;;;;;5015150;28;20033;-14
2022/07/15 04:18:01;;;;;;;7.90;5.68;;;18.60;74.30;;;;;;5015581;28;20030;-13
2022/07/15 04:20:27;;;;;;;8.73;5.80;;;18.70;74.20;;;;;;5014974;28;20034;-13
2022/07/15 04:22:53;;;;;;;10.10;6.13;;;18.80;73.60;;;;;;5015430;28;20056;-13
2022/07/15 04:25:21;;;;;;;13.95;6.50;;;18.80;73.40;;;;;;5015370;28;20092;-13
2022/07/15 04:27:48;;;;;;;13.38;8.02;;;18.90;73.90;;;;;;5015331;28;20044;-13
2022/07/15 04:30:15;;;;;;;16.85;9.77;;;18.90;73.40;;;;;;5014375;28;20061;-14
2022/07/15 04:32:41;;;;;;;19.52;7.38;;;19.00;73.30;;;;;;5015281;28;20099;-15
2022/07/15 04:35:08;;;;;;;13.35;8.50;;;19.10;74.00;;;;;;5014211;28;20022;-14
2022/07/15 04:37:34;;;;;;;11.68;8.15;;;19.20;74.20;;;;;;5014902;28;20092;-15
2022/07/15 04:40:00;;;;;;;11.63;8.15;;;19.20;73.20;;;;;;5015116;28;20022;-15
2022/07/15 04:42:27;;;;;;;12.27;7.78;;;19.30;73.40;;;;;;5013308;28;20037;-15
2022/07/15 04:44:52;;;;;;;11.35;8.30;;;19.40;72.90;;;;;;5014960;28;20026;-13
2022/07/15 04:47:18;;;;;;;10.75;6.47;;;19.40;73.00;;;;;;5014729;28;20371;-15
2022/07/15 04:52:30;;;;;;;10.48;7.57;;;19.70;72.90;;;;;;5014442;28;20040;-15
2022/07/15 04:54:57;;;;;;;11.27;6.70;;;19.80;73.70;;;;;;5014996;28;20469;-15
2022/07/15 04:57:23;;;;;;;11.48;7.55;;;19.90;73.20;;;;;;5014814;28;20026;-15
2022/07/15 04:59:49;;;;;;;15.13;9.10;;;20.00;73.40;;;;;;5014288;28;20029;-15
2022/07/15 05:02:15;;;;;;;14.80;9.07;;;20.20;74.00;;;;;;5014289;28;20030;-14
2022/07/15 05:04:41;;;;;;;11.45;8.10;;;20.40;73.70;;;;;;5014369;28;20105;-14
2022/07/15 05:07:07;;;;;;;11.75;7.35;;;20.50;72.70;;;;;;5014579;28;20026;-14
2022/07/15 05:09:33;;;;;;;14.68;8.70;;;20.60;72.80;;;;;;5014304;28;20025;-14
2022/07/15 05:12:00;;;;;;;16.65;9.82;;;20.70;72.50;;;;;;5014170;28;20038;-14
2022/07/15 05:14:25;;;;;;;11.18;7.85;;;20.90;72.20;;;;;;5013907;28;20033;-14
2022/07/15 05:16:51;;;;;;;13.35;8.55;;;21.00;71.90;;;;;;5012938;28;20101;-13
2022/07/15 05:19:17;;;;;;;15.77;7.53;;;21.20;71.90;;;;;;5014338;28;20033;-13
2022/07/15 05:21:43;;;;;;;12.25;8.30;;;21.20;71.00;;;;;;5014083;28;20021;-15
2022/07/15 05:24:09;;;;;;;10.88;7.85;;;21.40;70.90;;;;;;5014032;28;20033;-14
2022/07/15 05:26:35;;;;;;;12.80;8.43;;;21.50;70.50;;;;;;5014066;28;20452;-14
2022/07/15 05:29:01;;;;;;;12.85;8.68;;;21.70;70.30;;;;;;5014038;28;20481;-15
2022/07/15 05:31:27;;;;;;;12.43;8.45;;;21.80;70.10;;;;;;5014096;28;20477;-14
2022/07/15 05:33:54;;;;;;;15.13;7.90;;;21.90;69.40;;;;;;5013837;28;20544;-14
2022/07/15 05:36:20;;;;;;;12.25;8.18;;;22.10;69.00;;;;;;5013589;28;20497;-15
2022/07/15 05:38:46;;;;;;;11.32;7.80;;;22.20;69.00;;;;;;5013705;28;20037;-15
2022/07/15 05:41:13;;;;;;;14.40;8.10;;;22.40;68.30;;;;;;5013788;28;20018;-14
2022/07/15 05:43:39;;;;;;;10.43;7.40;;;22.50;67.90;;;;;;5013968;28;20112;-14
2022/07/15 05:46:06;;;;;;;9.07;6.00;;;22.70;67.50;;;;;;5013904;28;20014;-13
2022/07/15 05:48:32;;;;;;;16.50;8.10;;;22.80;67.20;;;;;;5013147;28;20108;-16
2022/07/15 05:50:58;;;;;;;12.27;7.47;;;22.90;66.70;;;;;;5013821;28;20601;-14
2022/07/15 05:53:24;;;;;;;9.80;7.10;;;23.10;66.40;;;;;;5013603;28;20026;-14
2022/07/15 05:55:52;;;;;;;11.68;6.85;;;23.20;66.00;;;;;;5013576;28;20091;-14
2022/07/15 05:58:18;;;;;;;9.98;7.15;;;23.30;65.80;;;;;;5013251;28;20026;-14
2022/07/15 06:00:44;;;;;;;16.58;7.60;;;23.40;65.40;;;;;;5013853;28;20486;-13
2022/07/15 06:03:10;;;;;;;9.02;6.20;;;23.50;65.00;;;;;;5013475;28;20037;-13
2022/07/15 06:05:36;;;;;;;10.48;7.57;;;23.60;64.80;;;;;;5013430;28;20032;-13
2022/07/15 06:08:02;;;;;;;12.70;6.95;;;23.70;64.80;;;;;;5013413;28;20038;-13
2022/07/15 06:10:28;;;;;;;10.48;6.10;;;23.90;64.40;;;;;;5013259;28;20026;-14
2022/07/15 06:12:54;;;;;;;10.60;5.93;;;24.00;64.10;;;;;;5013714;28;20470;-13
2022/07/15 06:15:22;;;;;;;10.88;6.97;;;24.10;64.00;;;;;;5013220;28;20025;-13
2022/07/15 06:17:49;;;;;;;11.27;7.47;;;24.20;63.70;;;;;;5013276;28;20030;-13
2022/07/15 06:20:15;;;;;;;12.73;6.82;;;24.30;63.40;;;;;;5013037;28;20371;-13
2022/07/15 06:22:41;;;;;;;9.80;6.47;;;24.40;63.30;;;;;;5013256;28;20478;-14
2022/07/15 06:25:08;;;;;;;10.07;6.60;;;24.50;63.00;;;;;;5013255;28;20022;-14
2022/07/15 06:27:35;;;;;;;10.10;6.85;;;24.70;62.60;;;;;;5013500;28;20030;-13
2022/07/15 06:30:01;;;;;;;9.60;5.45;;;24.80;62.60;;;;;;5013018;28;20099;-13
2022/07/15 06:32:28;;;;;;;11.30;6.18;;;24.90;62.20;;;;;;5013068;28;20030;-13
2022/07/15 06:34:54;;;;;;;9.05;5.78;;;25.10;61.90;;;;;;5012001;28;20108;-13
2022/07/15 06:37:21;;;;;;;10.25;5.82;;;25.30;61.80;;;;;;5013140;28;20533;-13
2022/07/15 06:39:47;;;;;;;8.43;5.78;;;25.40;61.40;;;;;;5013119;28;20057;-13
2022/07/15 06:42:13;;;;;;;7.78;4.72;;;25.60;60.90;;;;;;5013051;28;20037;-13
2022/07/15 06:44:40;;;;;;;14.85;6.47;;;25.70;60.60;;;;;;5013536;28;20026;-13
2022/07/15 06:47:06;;;;;;;10.38;6.38;;;25.80;60.30;;;;;;5013354;28;20083;-13
2022/07/15 06:49:36;;;;;;;7.38;4.80;;;25.90;60.10;;;;;;5013356;28;20079;-13
2022/07/15 06:52:03;;;;;;;6.20;3.70;;;26.00;59.80;;;;;;5012940;28;20030;-13
2022/07/15 06:54:29;;;;;;;7.93;4.15;;;26.20;59.30;;;;;;5012793;28;20025;-13
2022/07/15 06:56:54;;;;;;;7.72;4.40;;;26.40;58.90;;;;;;5012948;28;20036;-13
2022/07/15 06:59:20;;;;;;;8.32;4.78;;;26.50;58.90;;;;;;5013285;28;20097;-12
2022/07/15 07:01:47;;;;;;;4.55;3.55;;;26.70;58.50;;;;;;5016668;28;20030;-13
2022/07/15 07:04:13;;;;;;;4.47;3.50;;;26.70;58.30;;;;;;5016877;28;20030;-13
2022/07/15 07:06:39;;;;;;;8.10;4.13;;;26.90;58.30;;;;;;5015376;28;20029;-13
2022/07/15 07:09:05;;;;;;;9.15;4.40;;;27.00;58.10;;;;;;5016509;28;20437;-13
2022/07/15 07:11:32;;;;;;;7.60;4.03;;;27.00;58.10;;;;;;5016690;28;20026;-13
2022/07/15 07:13:59;;;;;;;7.75;4.15;;;27.10;58.70;;;;;;5016742;28;20037;-14
2022/07/15 07:16:26;;;;;;;10.55;4.43;;;27.30;58.80;;;;;;5016106;28;20113;-13
2022/07/15 07:18:52;;;;;;;5.15;3.03;;;27.40;58.00;;;;;;5016281;28;20505;-13
2022/07/15 07:21:19;;;;;;;8.88;3.80;;;27.60;58.30;;;;;;5016607;28;20026;-13
2022/07/15 07:23:45;;;;;;;7.65;3.92;;;27.70;58.50;;;;;;5016580;28;20038;-13
2022/07/15 07:26:15;;;;;;;7.80;3.83;;;27.90;57.60;;;;;;5016421;28;20034;-13
2022/07/15 07:28:42;;;;;;;6.25;3.80;;;28.10;57.00;;;;;;5016509;28;20050;-13
2022/07/15 07:31:10;;;;;;;4.10;2.92;;;28.40;56.90;;;;;;5015809;28;20046;-13
2022/07/15 07:33:37;;;;;;;7.53;3.38;;;28.50;56.60;;;;;;5016335;28;20080;-13
2022/07/15 07:36:05;;;;;;;3.42;3.08;;;28.70;56.60;;;;;;5016313;28;20049;-13
2022/07/15 07:38:33;;;;;;;4.68;3.17;;;28.80;56.80;;;;;;5015779;28;20525;-12
2022/07/15 07:41:00;;;;;;;6.13;3.38;;;28.90;56.30;;;;;;5015870;28;20547;-13
2022/07/15 07:43:27;;;;;;;7.20;3.55;;;29.20;56.40;;;;;;5015941;28;20022;-13
2022/07/15 07:45:54;;;;;;;6.93;3.28;;;29.30;56.60;;;;;;5016058;28;20025;-13
2022/07/15 07:48:21;;;;;;;5.85;3.00;;;29.40;56.40;;;;;;5015716;28;20022;-14
2022/07/15 07:50:47;;;;;;;5.88;3.45;;;29.60;56.20;;;;;;5015698;28;20493;-14
2022/07/15 07:53:13;;;;;;;4.47;2.97;;;29.70;55.90;;;;;;5015767;28;20112;-13
2022/07/15 07:55:39;;;;;;;4.93;3.28;;;29.60;56.20;;;;;;5015666;28;20117;-14
2022/07/15 07:58:05;;;;;;;8.65;3.33;;;29.70;55.50;;;;;;5015756;28;20029;-14
2022/07/15 08:00:33;;;;;;;4.53;3.00;;;29.80;55.60;;;;;;5015446;28;20034;-13
2022/07/15 08:03:00;;;;;;;3.35;2.72;;;29.90;55.10;;;;;;5015988;28;20026;-14
2022/07/15 08:05:27;;;;;;;3.33;2.80;;;30.20;54.80;;;;;;5015840;28;20022;-14
2022/07/15 08:08:15;;;;;;;4.38;3.03;;;30.30;54.60;;;;;;5015763;28;20482;-14
2022/07/15 08:10:42;;;;;;;3.60;2.70;;;30.50;54.20;;;;;;5015634;28;20038;-13
2022/07/15 08:13:12;;;;;;;4.40;2.90;;;30.70;53.70;;;;;;5015071;28;20386;-13
2022/07/15 08:15:40;;;;;;;3.25;2.47;;;30.90;53.50;;;;;;5015528;28;20030;-14
2022/07/15 08:18:06;;;;;;;3.88;3.15;;;31.10;53.10;;;;;;5015480;28;20018;-14
2022/07/15 08:20:32;;;;;;;2.95;2.70;;;31.40;52.40;;;;;;5015138;28;20026;-14
2022/07/15 08:22:59;;;;;;;4.47;2.83;;;31.70;51.40;;;;;;5015162;28;20389;-13
2022/07/15 08:25:27;;;;;;;3.30;3.00;;;32.00;50.20;;;;;;5015419;28;20029;-13
2022/07/15 08:27:53;;;;;;;2.58;2.30;;;32.00;49.90;;;;;;5015350;28;20025;-13
2022/07/15 08:30:20;;;;;;;5.28;2.90;;;32.00;50.10;;;;;;5014588;28;20523;-13
2022/07/15 08:32:46;;;;;;;4.95;2.80;;;32.10;50.20;;;;;;5015253;28;20571;-12
2022/07/15 08:35:13;;;;;;;4.65;2.53;;;32.30;50.10;;;;;;5014900;28;20038;-13
2022/07/15 08:37:39;;;;;;;2.90;2.45;;;32.50;49.00;;;;;;5015191;28;20108;-13
2022/07/15 08:40:08;;;;;;;3.78;2.55;;;32.80;48.70;;;;;;5014982;28;20030;-13
2022/07/15 08:42:34;;;;;;;7.75;2.75;;;32.90;48.20;;;;;;5014653;28;20026;-12
2022/07/15 08:45:00;;;;;;;4.63;3.17;;;33.10;48.40;;;;;;5015062;28;20124;-12
2022/07/15 08:47:26;;;;;;;3.47;2.92;;;33.30;48.20;;;;;;5013482;28;20428;-13
2022/07/15 08:49:57;;;;;;;2.83;2.63;;;33.40;48.10;;;;;;5014840;28;20029;-13
2022/07/15 08:52:26;;;;;;;3.95;2.60;;;33.60;48.30;;;;;;5014668;28;20102;-13
2022/07/15 08:54:52;;;;;;;4.53;2.47;;;33.80;47.20;;;;;;5015030;28;20055;-13
2022/07/15 08:57:19;;;;;;;3.72;2.80;;;34.00;45.30;;;;;;5014974;28;20481;-13
2022/07/15 08:59:46;;;;;;;4.78;2.55;;;34.00;44.80;;;;;;5014487;28;20061;-13
2022/07/15 09:02:13;;;;;;;2.63;2.40;;;34.10;45.30;;;;;;5014422;28;20018;-13
2022/07/15 09:05:17;;;;;;;5.05;2.50;;;34.30;45.00;;;;;;5014713;28;20030;-13
2022/07/15 09:08:01;;;;;;;;;;;34.60;42.90;;;;;;5014764;28;20026;-13
2022/07/15 09:10:52;;;;;;;2.97;2.70;;;34.80;43.00;;;;;;5014037;28;19918;-13
2022/07/15 09:13:25;;;;;;;4.18;2.47;;;35.00;43.00;;;;;;5014304;28;20022;-13
2022/07/15 09:15:54;;;;;;;6.65;2.67;;;35.10;42.40;;;;;;5014144;28;20036;-13
2022/07/15 09:18:33;;;;;;;4.57;2.60;;;35.10;42.60;;;;;;5014043;28;20034;-13
2022/07/15 09:21:00;;;;;;;3.55;2.65;;;35.10;42.00;;;;;;5014182;28;20555;-13
2022/07/15 09:23:33;;;;;;;3.80;2.58;;;35.30;41.90;;;;;;5013490;28;20026;-13
2022/07/15 09:26:29;;;;;;;4.05;2.78;;;35.10;41.50;;;;;;5014343;28;20030;-13
2022/07/15 09:28:57;;;;;;;2.95;2.30;;;35.40;38.10;;;;;;5014889;28;20033;-13
2022/07/15 09:34:24;;;;;;;3.55;2.70;;;35.40;39.60;;;;;;5014027;28;20033;-13
2022/07/15 09:36:54;;;;;;;5.30;2.60;;;35.70;39.80;;;;;;5014318;28;20101;-13
2022/07/15 09:39:22;;;;;;;2.85;2.55;;;35.90;40.00;;;;;;5013818;28;20026;-13
2022/07/15 09:41:49;;;;;;;4.22;2.35;;;36.00;40.50;;;;;;5013914;28;20135;-13
2022/07/15 09:44:22;;;;;;;3.85;2.50;;;36.30;40.50;;;;;;5013952;28;20017;-14
2022/07/15 09:46:57;;;;;;;3.05;2.60;;;36.50;39.90;;;;;;5013571;28;20383;-13
2022/07/15 09:49:23;;;;;;;3.85;2.40;;;36.80;39.20;;;;;;5014016;28;20104;-13
2022/07/15 09:51:58;;;;;;;4.90;2.50;;;37.00;38.80;;;;;;5013513;28;20441;-13
2022/07/15 09:54:29;;;;;;;2.80;2.30;;;37.00;38.60;;;;;;5013492;28;20108;-13
2022/07/15 09:56:55;;;;;;;2.92;2.28;;;37.20;37.50;;;;;;5014467;28;20050;-13
2022/07/15 09:59:21;;;;;;;5.78;2.58;;;37.50;36.20;;;;;;5013539;28;20030;-13
2022/07/15 10:01:47;;;;;;;2.55;2.20;;;37.70;35.80;;;;;;5013403;28;20552;-13
2022/07/15 10:04:16;;;;;;;4.20;2.33;;;37.90;35.70;;;;;;5013573;28;20033;-13
2022/07/15 10:06:43;;;;;;;2.05;1.95;;;38.00;34.00;;;;;;5013767;28;20109;-13
2022/07/15 10:09:10;;;;;;;3.33;2.10;;;38.20;33.10;;;;;;5013372;28;20037;-13
2022/07/15 10:11:42;;;;;;;3.45;2.33;;;38.20;33.20;;;;;;5013636;28;20066;-13
2022/07/15 10:14:29;;;;;;;2.65;2.03;;;38.10;33.10;;;;;;5013478;28;20072;-13
2022/07/15 10:16:55;;;;;;;3.28;2.20;;;38.20;30.80;;;;;;5012027;28;20026;-13
2022/07/15 10:19:44;;;;;;;5.32;2.40;;;38.10;32.40;;;;;;5013828;28;20496;-13
2022/07/15 10:22:15;;;;;;;2.72;2.33;;;38.30;32.70;;;;;;5013475;28;20065;-13
2022/07/15 10:25:07;;;;;;;3.60;2.28;;;38.50;32.70;;;;;;5013304;28;20026;-13
2022/07/15 10:27:35;;;;;;;5.28;2.47;;;38.80;32.60;;;;;;4971950;28;20119;-13
2022/07/15 10:30:06;;;;;;;4.68;2.40;;;39.20;31.80;;;;;;4972045;28;20573;-13
2022/07/15 10:33:18;;;;;;;4.28;2.67;;;39.40;31.80;;;;;;4955799;28;20496;-13
2022/07/15 10:35:44;;;;;;;3.22;2.40;;;39.50;31.50;;;;;;4968558;28;20162;-13
2022/07/15 10:38:35;;;;;;;2.88;2.50;;;39.70;31.60;;;;;;4976131;28;20034;-13
2022/07/15 10:41:14;;;;;;;3.20;2.45;;;39.90;30.40;;;;;;4976467;28;20442;-13
2022/07/15 10:43:48;;;;;;;3.20;2.60;;;40.10;31.20;;;;;;4975951;28;20027;-13
2022/07/15 10:46:17;;;;;;;4.68;2.70;;;40.20;30.70;;;;;;4975493;28;20054;-13
2022/07/15 10:48:45;;;;;;;4.30;2.67;;;39.90;30.50;;;;;;4975947;28;20041;-13
2022/07/15 10:51:13;;;;;;;4.05;2.70;;;39.90;31.50;;;;;;4975750;28;20122;-13
2022/07/15 10:53:49;;;;;;;5.97;2.97;;;39.70;31.10;;;;;;4975752;28;20066;-13
2022/07/15 10:56:37;;;;;;;6.97;2.80;;;39.70;31.20;;;;;;4975490;28;20027;-14
2022/07/15 10:59:13;;;;;;;2.85;2.60;;;39.50;31.50;;;;;;4975864;28;20055;-13
2022/07/15 11:02:00;;;;;;;4.63;2.78;;;39.60;31.60;;;;;;4975538;28;20483;-13
2022/07/15 11:04:29;;;;;;;4.70;2.78;;;39.70;31.50;;;;;;4993736;28;20029;-13
2022/07/15 11:07:07;;;;;;;4.80;3.10;;;39.60;32.00;;;;;;5016618;28;20045;-13
2022/07/15 11:09:53;;;;;;;6.28;2.90;;;39.70;31.40;;;;;;5016546;28;20032;-13
2022/07/15 11:12:48;;;;;;;4.03;3.10;;;39.80;30.50;;;;;;5016332;28;20065;-13
2022/07/15 11:15:19;;;;;;;3.22;2.92;;;40.10;31.10;;;;;;4975127;28;20066;-13
2022/07/15 11:17:47;;;;;;;5.13;3.05;;;40.40;31.50;;;;;;4975759;28;20077;-13
2022/07/15 11:20:17;;;;;;;5.53;2.97;;;40.40;31.40;;;;;;4975172;28;20487;-14
2022/07/15 11:22:52;;;;;;;7.40;2.97;;;40.40;31.20;;;;;;4975317;28;20053;-13
2022/07/15 11:25:20;;;;;;;7.20;3.08;;;40.30;31.20;;;;;;4975149;28;20443;-13
2022/07/15 11:28:05;;;;;;;6.70;3.10;;;40.00;32.10;;;;;;4975145;28;20030;-13
2022/07/15 11:30:44;;;;;;;3.40;3.10;;;40.30;32.10;;;;;;4974531;28;20526;-13
2022/07/15 11:33:16;;;;;;;4.38;3.10;;;40.80;31.60;;;;;;4975558;28;20039;-13
2022/07/15 11:35:43;;;;;;;;;;;41.40;31.30;;;;;;4975401;28;20034;-13
2022/07/15 11:38:10;;;;;;;5.00;3.15;;;41.70;30.80;;;;;;4974940;28;19906;-13
2022/07/15 11:46:10;;;;;;;5.30;3.35;;;42.70;29.70;;;;;;4974250;28;20069;-13
2022/07/15 11:48:38;;;;;;;3.78;3.30;;;42.70;30.10;;;;;;4974305;28;20062;-13
2022/07/15 11:51:06;;;;;;;6.43;3.70;;;42.50;30.20;;;;;;4979807;28;20030;-13
2022/07/15 11:53:58;;;;;;;6.25;3.72;;;42.60;30.30;;;;;;5014522;28;20544;-13
2022/07/15 11:56:25;;;;;;;5.55;3.00;;;42.30;29.60;;;;;;5013637;28;20401;-13
2022/07/15 11:58:54;;;;;;;3.92;3.20;;;41.70;30.70;;;;;;5016584;28;20038;-13
2022/07/15 12:01:23;;;;;;;5.53;3.05;;;42.00;30.80;;;;;;5015566;28;20022;-13
2022/07/15 12:03:52;;;;;;;5.18;3.50;;;42.50;29.90;;;;;;5015639;28;20401;-13
2022/07/15 12:06:28;;;;;;;3.70;3.20;;;42.70;29.70;;;;;;5015261;28;20112;-12
2022/07/15 12:08:56;;;;;;;4.32;2.88;;;42.40;30.00;;;;;;5015802;28;20109;-13
2022/07/15 12:11:28;;;;;;;6.75;3.45;;;42.50;30.30;;;;;;5016088;28;20030;-13
2022/07/15 12:14:02;;;;;;;6.03;3.60;;;42.70;30.20;;;;;;5015616;28;20103;-13
2022/07/15 12:16:34;;;;;;;5.68;3.30;;;42.70;29.80;;;;;;5015081;28;20041;-13
2022/07/15 12:19:05;;;;;;;3.47;3.17;;;42.40;29.80;;;;;;5015286;28;20038;-13
2022/07/15 12:21:32;;;;;;;4.85;3.10;;;42.20;29.90;;;;;;5015597;28;20101;-13
2022/07/15 12:24:04;;;;;;;4.43;3.58;;;42.30;30.70;;;;;;5015395;28;20029;-13
2022/07/15 12:26:32;;;;;;;3.47;3.10;;;42.40;30.50;;;;;;5015012;28;20026;-13
2022/07/15 12:29:00;;;;;;;7.85;2.80;;;42.80;30.40;;;;;;5014869;28;20041;-14
2022/07/15 12:31:29;;;;;;;4.07;2.85;;;43.20;30.10;;;;;;5014942;28;20072;-13
2022/07/15 12:33:55;;;;;;;4.30;2.40;;;43.40;28.80;;;;;;5015318;28;20430;-13
2022/07/15 12:36:28;;;;;;;4.28;2.75;;;42.90;29.10;;;;;;5014867;28;20029;-13
2022/07/15 12:39:07;;;;;;;4.05;2.60;;;42.40;29.40;;;;;;5015221;28;20022;-13
2022/07/15 12:41:34;;;;;;;3.50;2.47;;;41.90;29.50;;;;;;5014894;28;20028;-13
2022/07/15 12:44:02;;;;;;;3.42;2.65;;;41.40;30.40;;;;;;5015105;28;20109;-13
2022/07/15 12:46:51;;;;;;;2.72;2.47;;;41.50;30.40;;;;;;5014408;28;20080;-13
2022/07/15 12:49:37;;;;;;;4.28;2.58;;;41.20;29.40;;;;;;5015115;28;20029;-13
2022/07/15 12:52:17;;;;;;;2.72;2.30;;;41.00;29.30;;;;;;5014879;28;20381;-13
2022/07/15 12:54:43;;;;;;;4.07;2.70;;;41.40;29.40;;;;;;5014589;28;20030;-13
2022/07/15 12:57:35;;;;;;;3.97;2.60;;;42.00;28.90;;;;;;5014882;28;20025;-13
2022/07/15 13:00:07;;;;;;;5.47;2.50;;;42.40;28.50;;;;;;5014586;28;20095;-13
2022/07/15 13:02:59;;;;;;;4.80;2.50;;;42.00;28.20;;;;;;5014153;28;20053;-13
2022/07/15 13:05:27;;;;;;;4.60;2.40;;;41.60;28.30;;;;;;5014749;28;20030;-13
2022/07/15 13:07:53;;;;;;;4.28;2.60;;;41.10;29.00;;;;;;5014374;28;20022;-13
2022/07/15 13:10:19;;;;;;;4.22;2.38;;;41.20;29.20;;;;;;5014254;28;20022;-13
2022/07/15 13:12:45;;;;;;;2.53;2.30;;;41.40;28.60;;;;;;5014576;28;20088;-13